Time;durP1;ratioP1;P1;durP2;ratioP2;P2;SDS_P1;SDS_P2;PMS_P1;PMS_P2;Temp;Humidity;BMP_temperature;BMP_pressure;BME280_temperature;BME280_humidity;BME280_pressure;Samples;Min_cycle;Max_cycle;Signal;HPM_P1;HPM_P2
2023/06/09 00:01:35;;;;;;;6.82;4.13;;;;;;;17.45;77.29;99890.91;5007343;28;20400;-21
2023/06/09 00:04:02;;;;;;;8.93;4.80;;;;;;;17.22;78.38;99876.03;5007206;28;20030;-18
2023/06/09 00:06:30;;;;;;;8.20;4.47;;;;;;;17.19;77.17;99880.06;5007289;28;20033;-21
2023/06/09 00:08:57;;;;;;;7.32;4.45;;;;;;;16.89;79.23;99880.00;5007279;28;20029;-20
2023/06/09 00:11:23;;;;;;;8.43;4.80;;;;;;;16.81;80.21;99884.81;5006942;28;20574;-19
2023/06/09 00:13:49;;;;;;;7.85;4.90;;;;;;;17.07;78.14;99879.50;5007231;28;20036;-17
2023/06/09 00:16:15;;;;;;;9.45;4.65;;;;;;;17.15;77.72;99886.28;5006720;28;20424;-19
2023/06/09 00:18:41;;;;;;;7.30;4.65;;;;;;;17.11;78.52;99886.00;5007020;28;20072;-19
2023/06/09 00:21:07;;;;;;;6.68;4.95;;;;;;;17.35;77.27;99880.13;5006509;28;20028;-19
2023/06/09 00:23:32;;;;;;;9.48;4.47;;;;;;;17.32;77.79;99875.25;5006872;28;20030;-19
2023/06/09 00:25:58;;;;;;;6.53;4.05;;;;;;;17.06;80.02;99888.66;5006748;28;20113;-19
2023/06/09 00:28:23;;;;;;;11.40;4.75;;;;;;;17.14;79.62;99893.56;5006719;28;20026;-18
2023/06/09 00:30:49;;;;;;;6.82;4.28;;;;;;;17.17;79.07;99878.72;5007204;28;20464;-21
2023/06/09 00:33:14;;;;;;;7.35;4.15;;;;;;;17.35;77.61;99872.03;5006442;28;20029;-18
2023/06/09 00:35:40;;;;;;;8.35;4.22;;;;;;;17.12;78.98;99878.72;5006699;28;20406;-18
2023/06/09 00:38:05;;;;;;;7.72;4.72;;;;;;;16.95;80.04;99874.38;5006191;28;20018;-19
2023/06/09 00:40:31;;;;;;;6.03;3.92;;;;;;;16.81;80.90;99876.75;5006626;28;20495;-18
2023/06/09 00:42:56;;;;;;;7.07;4.20;;;;;;;16.87;80.47;99883.75;5005409;28;20124;-28
2023/06/09 00:45:22;;;;;;;9.25;4.75;;;;;;;17.13;79.62;99878.44;5006493;28;20109;-18
2023/06/09 00:47:47;;;;;;;7.65;4.55;;;;;;;17.03;79.72;99881.94;5006778;28;20416;-18
2023/06/09 00:50:16;;;;;;;8.95;4.43;;;;;;;17.04;79.59;99880.88;5006105;28;20420;-19
2023/06/09 00:52:42;;;;;;;9.25;4.68;;;;;;;16.35;82.87;99871.16;5006455;28;20037;-18
2023/06/09 00:55:12;;;;;;;13.02;4.82;;;;;;;16.34;83.41;99869.53;5006233;28;20030;-19
2023/06/09 00:57:39;;;;;;;7.45;4.50;;;;;;;16.13;85.31;99865.94;5006380;28;20030;-19
2023/06/09 01:00:06;;;;;;;9.27;4.57;;;;;;;16.20;85.22;99861.13;5006289;28;20037;-18
2023/06/09 01:02:33;;;;;;;9.70;4.72;;;;;;;16.62;82.43;99867.50;5004874;28;20635;-19
2023/06/09 01:04:59;;;;;;;6.60;4.20;;;;;;;16.26;84.38;99864.66;5006153;28;20397;-18
2023/06/09 01:07:54;;;;;;;9.55;4.60;;;;;;;15.98;85.96;99855.09;5005959;28;20561;-18
2023/06/09 01:10:41;;;;;;;8.90;4.47;;;;;;;16.38;83.43;99865.25;5006355;28;20493;-22
2023/06/09 01:13:27;;;;;;;5.97;4.60;;;;;;;16.36;83.74;99870.06;5006146;28;20038;-19
2023/06/09 01:16:01;;;;;;;8.98;4.55;;;;;;;16.20;83.69;99845.00;5005975;28;20104;-19
2023/06/09 01:18:30;;;;;;;6.20;4.22;;;;;;;16.21;84.66;99859.25;5005905;28;20018;-19
2023/06/09 01:21:35;;;;;;;8.90;4.90;;;;;;;16.42;83.17;99850.19;5005892;28;20084;-19
2023/06/09 01:24:26;;;;;;;9.23;4.70;;;;;;;16.77;80.88;99853.28;5005139;28;20559;-19
2023/06/09 01:26:54;;;;;;;8.98;4.90;;;;;;;16.40;82.10;99844.25;5005880;28;20044;-19
2023/06/09 01:29:22;;;;;;;8.60;4.85;;;;;;;16.35;82.70;99851.53;5005920;28;20057;-18
2023/06/09 01:31:49;;;;;;;8.30;4.47;;;;;;;16.38;82.79;99859.84;5005863;28;20030;-19
2023/06/09 01:34:15;;;;;;;7.70;5.28;;;;;;;16.58;81.17;99863.72;5005849;28;20046;-18
2023/06/09 01:36:41;;;;;;;7.30;4.72;;;;;;;16.69;80.58;99868.06;5005609;28;20120;-18
2023/06/09 01:39:08;;;;;;;8.73;4.75;;;;;;;16.73;79.76;99869.16;5005811;28;20026;-19
2023/06/09 01:41:33;;;;;;;8.25;4.70;;;;;;;16.55;80.47;99872.31;5005514;28;20489;-18
2023/06/09 01:43:59;;;;;;;9.60;5.20;;;;;;;16.42;81.78;99869.03;5005707;28;20057;-19
2023/06/09 01:46:24;;;;;;;9.60;5.22;;;;;;;16.50;80.45;99865.03;5005313;28;20140;-20
2023/06/09 01:49:04;;;;;;;9.80;5.35;;;;;;;16.54;80.61;99868.00;5005643;28;20703;-19
2023/06/09 01:51:32;;;;;;;8.88;5.70;;;;;;;16.54;80.15;99859.94;5005594;28;20525;-19
2023/06/09 01:54:18;;;;;;;;;;;;;;;16.10;82.35;99866.47;5007022;28;20934;-20
2023/06/09 01:56:56;;;;;;;7.35;5.47;;;;;;;16.15;81.93;99860.28;4978629;28;19921;-19
2023/06/09 01:59:23;;;;;;;;;;;;;;;15.85;83.59;99859.84;5009823;28;20029;-24
2023/06/09 02:01:51;;;;;;;9.07;6.05;;;;;;;16.16;81.95;99854.66;5009734;28;19909;-18
2023/06/09 02:04:18;;;;;;;10.13;5.57;;;;;;;16.29;81.47;99864.13;5009445;28;20026;-20
2023/06/09 02:06:44;;;;;;;10.05;6.70;;;;;;;16.33;80.92;99859.84;5009216;28;20030;-19
2023/06/09 02:09:11;;;;;;;8.45;5.57;;;;;;;16.34;80.92;99860.66;5009381;28;20041;-18
2023/06/09 02:11:37;;;;;;;9.23;5.80;;;;;;;16.58;79.52;99866.41;5009351;28;20164;-18
2023/06/09 02:14:02;;;;;;;11.25;6.13;;;;;;;16.23;80.68;99849.03;5008996;28;20042;-18
2023/06/09 02:16:28;;;;;;;10.50;5.50;;;;;;;16.35;79.90;99846.94;5009236;28;20054;-19
2023/06/09 02:18:55;;;;;;;11.68;5.57;;;;;;;16.01;81.84;99852.66;5008982;28;20045;-24
2023/06/09 02:21:21;;;;;;;7.90;5.30;;;;;;;16.03;82.25;99863.97;5009125;28;20026;-19
2023/06/09 02:23:47;;;;;;;9.45;5.78;;;;;;;16.11;81.10;99856.50;5009128;28;20030;-18
2023/06/09 02:26:12;;;;;;;8.20;5.20;;;;;;;15.85;82.33;99857.16;5008791;28;20088;-19
2023/06/09 02:28:38;;;;;;;7.78;5.63;;;;;;;15.82;82.38;99848.81;5009108;28;20026;-19
2023/06/09 02:31:04;;;;;;;8.70;5.18;;;;;;;15.72;82.87;99854.06;5009216;28;20370;-18
2023/06/09 02:33:30;;;;;;;8.45;4.93;;;;;;;15.41;84.79;99851.94;5008729;28;20032;-18
2023/06/09 02:35:56;;;;;;;8.00;4.88;;;;;;;15.39;85.27;99858.66;5008705;28;20472;-18
2023/06/09 02:38:23;;;;;;;12.90;5.43;;;;;;;15.59;84.57;99852.63;5008877;28;20120;-18
2023/06/09 02:40:49;;;;;;;8.10;5.47;;;;;;;15.70;83.35;99861.59;5008663;28;20079;-18
2023/06/09 02:43:14;;;;;;;12.35;6.88;;;;;;;15.58;82.75;99865.25;5008617;28;20057;-19
2023/06/09 02:45:40;;;;;;;11.15;6.15;;;;;;;14.84;87.02;99861.34;5008690;28;20033;-18
2023/06/09 02:48:06;;;;;;;8.75;5.80;;;;;;;14.71;88.98;99877.00;5008535;28;20038;-19
2023/06/09 02:50:31;;;;;;;8.43;5.47;;;;;;;14.71;88.64;99877.84;5008231;28;20118;-19
2023/06/09 02:52:57;;;;;;;10.43;5.60;;;;;;;14.65;87.81;99878.84;5008723;28;20087;-18
2023/06/09 02:55:22;;;;;;;15.35;6.93;;;;;;;14.50;88.10;99881.31;5008580;28;20818;-19
2023/06/09 02:57:48;;;;;;;9.50;6.38;;;;;;;14.42;88.36;99867.25;5008345;28;20067;-19
2023/06/09 03:00:14;;;;;;;11.32;6.85;;;;;;;14.62;87.66;99876.66;5008404;28;20034;-18
2023/06/09 03:02:41;;;;;;;13.23;6.68;;;;;;;14.59;87.96;99880.66;5008142;28;20054;-21
2023/06/09 03:05:07;;;;;;;11.90;7.45;;;;;;;14.46;88.45;99887.19;5008034;28;20022;-19
2023/06/09 03:07:33;;;;;;;9.40;6.78;;;;;;;14.44;88.83;99867.84;5007801;28;20022;-18
2023/06/09 03:10:00;;;;;;;18.15;9.35;;;;;;;14.76;87.71;99885.94;5008095;28;20056;-19
2023/06/09 03:12:26;;;;;;;18.85;10.13;;;;;;;14.78;87.08;99883.81;5008288;28;20036;-20
2023/06/09 03:14:51;;;;;;;10.63;6.97;;;;;;;14.19;90.38;99872.84;5008039;28;20033;-18
2023/06/09 03:17:17;;;;;;;8.02;5.32;;;;;;;14.01;93.10;99885.47;5008087;28;20056;-19
2023/06/09 03:19:43;;;;;;;7.88;5.45;;;;;;;14.16;92.77;99886.75;5007950;28;20247;-19
2023/06/09 03:22:08;;;;;;;10.00;5.90;;;;;;;14.26;92.78;99885.03;5008174;28;20551;-19
2023/06/09 03:24:34;;;;;;;9.35;7.05;;;;;;;14.54;91.72;99882.44;5007582;28;20033;-19
2023/06/09 03:27:00;;;;;;;8.82;5.95;;;;;;;14.40;93.50;99890.03;5007717;28;20461;-18
2023/06/09 03:29:28;;;;;;;8.25;5.35;;;;;;;14.62;92.20;99890.06;5007819;28;20568;-19
2023/06/09 03:31:53;;;;;;;8.05;5.80;;;;;;;14.67;92.41;99890.16;5007967;28;20026;-19
2023/06/09 03:34:20;;;;;;;10.95;6.55;;;;;;;15.00;91.00;99880.31;5007771;28;20467;-19
2023/06/09 03:36:46;;;;;;;15.55;6.93;;;;;;;15.06;90.13;99885.47;5007179;28;20030;-19
2023/06/09 03:39:11;;;;;;;53.08;10.68;;;;;;;15.57;88.18;99887.00;5007824;28;20041;-20
2023/06/09 03:41:36;;;;;;;10.70;6.53;;;;;;;15.50;88.51;99889.09;5007181;28;20433;-20
2023/06/09 03:44:02;;;;;;;10.40;6.43;;;;;;;15.75;87.51;99886.66;5007552;28;20488;-18
2023/06/09 03:46:27;;;;;;;19.85;7.47;;;;;;;15.84;87.27;99876.25;5007483;28;20037;-19
2023/06/09 03:48:53;;;;;;;14.52;7.05;;;;;;;15.73;89.08;99888.78;5007475;28;20834;-18
2023/06/09 03:51:19;;;;;;;14.30;7.45;;;;;;;15.70;90.86;99888.47;5007200;28;20033;-20
2023/06/09 03:53:45;;;;;;;14.65;6.75;;;;;;;15.76;90.84;99887.47;5007285;28;20088;-19
2023/06/09 03:56:11;;;;;;;18.00;7.30;;;;;;;15.93;91.37;99890.81;5007241;28;20022;-19
2023/06/09 03:58:37;;;;;;;10.50;7.30;;;;;;;16.11;89.73;99888.78;5007134;28;20057;-19
2023/06/09 04:01:02;;;;;;;14.68;7.47;;;;;;;15.96;91.07;99893.00;5007212;28;20056;-19
2023/06/09 04:03:28;;;;;;;14.18;7.30;;;;;;;15.82;91.98;99889.13;5007212;28;20544;-18
2023/06/09 04:05:53;;;;;;;12.57;7.13;;;;;;;15.82;91.74;99886.44;5007304;28;20117;-21
2023/06/09 04:08:18;;;;;;;12.23;7.97;;;;;;;15.72;92.93;99891.72;5006801;28;20485;-20
2023/06/09 04:10:44;;;;;;;11.18;7.75;;;;;;;15.90;92.12;99883.28;5007180;28;20618;-19
2023/06/09 04:13:11;;;;;;;10.95;6.75;;;;;;;16.18;90.23;99905.50;5006884;28;20476;-19
2023/06/09 04:15:37;;;;;;;12.43;7.18;;;;;;;16.22;89.45;99903.91;5006803;28;20036;-19
2023/06/09 04:18:03;;;;;;;9.82;6.97;;;;;;;16.29;89.26;99904.50;5005984;28;20421;-19
2023/06/09 04:20:29;;;;;;;10.10;7.07;;;;;;;16.16;90.33;99896.88;5006840;28;20030;-19
2023/06/09 04:22:55;;;;;;;10.13;7.85;;;;;;;16.23;89.67;99903.66;5006922;28;20112;-22
2023/06/09 04:25:28;;;;;;;10.02;7.75;;;;;;;16.30;90.44;99892.66;5006569;28;20109;-20
2023/06/09 04:27:54;;;;;;;10.63;7.30;;;;;;;16.84;87.68;99913.94;5007049;28;20029;-19
2023/06/09 04:30:25;;;;;;;14.10;7.63;;;;;;;17.08;86.18;99913.47;5006716;28;20028;-19
2023/06/09 04:32:53;;;;;;;11.10;8.02;;;;;;;17.01;86.02;99912.91;5006721;28;20095;-19
2023/06/09 04:35:22;;;;;;;12.93;8.30;;;;;;;17.06;87.32;99907.53;5006230;28;20771;-19
2023/06/09 04:37:51;;;;;;;11.63;6.78;;;;;;;17.11;85.39;99891.38;5006514;28;20040;-19
2023/06/09 04:40:22;;;;;;;11.70;8.80;;;;;;;17.20;87.10;99910.53;5006278;28;20497;-21
2023/06/09 04:42:51;;;;;;;11.85;8.40;;;;;;;17.40;86.30;99912.44;5006337;28;20132;-19
2023/06/09 04:45:18;;;;;;;10.40;7.47;;;;;;;17.47;84.92;99896.84;5006742;28;20089;-19
2023/06/09 04:47:45;;;;;;;10.65;8.20;;;;;;;17.86;83.94;99907.09;5006191;28;20064;-21
2023/06/09 04:50:12;;;;;;;10.90;8.67;;;;;;;17.64;85.52;99905.44;5006653;28;20034;-19
2023/06/09 04:52:39;;;;;;;11.32;8.52;;;;;;;17.57;86.55;99920.28;5006458;28;20041;-19
2023/06/09 04:55:05;;;;;;;10.33;8.27;;;;;;;17.49;87.40;99921.63;5006186;28;20470;-19
2023/06/09 04:57:31;;;;;;;11.38;8.40;;;;;;;17.56;86.46;99905.19;5006200;28;20792;-19
2023/06/09 04:59:57;;;;;;;10.43;8.25;;;;;;;17.78;85.75;99891.44;5006416;28;20037;-18
2023/06/09 05:02:22;;;;;;;11.85;8.73;;;;;;;17.63;86.76;99894.94;4988716;28;20050;-18
2023/06/09 05:04:48;;;;;;;13.57;8.25;;;;;;;17.97;84.40;99907.91;5005836;28;20034;-19
2023/06/09 05:07:14;;;;;;;10.93;8.23;;;;;;;18.09;83.44;99905.72;5005963;28;20059;-26
2023/06/09 05:09:39;;;;;;;12.25;8.00;;;;;;;18.36;82.14;99904.59;5006185;28;20034;-19
2023/06/09 05:12:05;;;;;;;12.85;8.73;;;;;;;18.17;84.44;99901.66;5006268;28;20033;-20
2023/06/09 05:14:30;;;;;;;11.15;8.07;;;;;;;18.35;83.71;99905.66;5005713;28;20042;-19
2023/06/09 05:16:55;;;;;;;11.88;8.27;;;;;;;18.72;81.78;99899.88;5006032;28;20022;-22
2023/06/09 05:19:21;;;;;;;13.85;8.20;;;;;;;18.70;80.90;99898.53;5005759;28;20025;-19
2023/06/09 05:21:46;;;;;;;11.27;7.85;;;;;;;18.61;81.17;99903.69;5006071;28;20715;-19
2023/06/09 05:24:12;;;;;;;13.70;7.80;;;;;;;18.50;81.32;99900.22;5006075;28;20417;-18
2023/06/09 05:26:37;;;;;;;11.70;7.57;;;;;;;18.65;81.93;99891.25;5005870;28;20030;-19
2023/06/09 05:29:03;;;;;;;12.65;8.25;;;;;;;19.20;78.14;99902.88;5005883;28;20029;-18
2023/06/09 05:31:29;;;;;;;16.38;8.20;;;;;;;19.42;77.46;99901.66;5005473;28;20424;-19
2023/06/09 05:33:55;;;;;;;11.23;7.93;;;;;;;19.41;77.73;99908.13;5006352;28;20022;-18
2023/06/09 05:36:20;;;;;;;11.25;7.07;;;;;;;19.65;77.07;99903.63;5005673;28;20041;-19
2023/06/09 05:38:45;;;;;;;12.23;7.75;;;;;;;19.57;76.46;99906.13;5005921;28;20061;-19
2023/06/09 05:41:11;;;;;;;10.30;7.18;;;;;;;19.82;74.72;99900.56;5005591;28;20041;-20
2023/06/09 05:43:36;;;;;;;13.75;6.68;;;;;;;19.92;73.00;99906.94;5005407;28;20056;-19
2023/06/09 05:46:02;;;;;;;10.93;6.97;;;;;;;20.05;72.89;99901.69;5005279;28;20112;-19
2023/06/09 05:48:27;;;;;;;18.50;7.40;;;;;;;20.02;73.32;99904.97;5005562;28;20030;-21
2023/06/09 05:50:53;;;;;;;9.90;7.10;;;;;;;19.71;74.64;99906.34;5005858;28;20052;-19
2023/06/09 05:53:18;;;;;;;9.30;7.00;;;;;;;19.61;73.81;99897.16;5005139;28;20038;-19
2023/06/09 05:55:47;;;;;;;8.95;5.88;;;;;;;19.91;72.79;99898.03;5005761;28;20105;-21
2023/06/09 05:58:18;;;;;;;9.90;6.32;;;;;;;20.20;71.26;99908.03;5005314;28;20537;-19
2023/06/09 06:00:44;;;;;;;7.50;5.97;;;;;;;20.40;71.43;99902.41;5005361;28;20026;-18
2023/06/09 06:03:11;;;;;;;12.00;6.70;;;;;;;20.53;70.32;99910.94;5005539;28;20034;-19
2023/06/09 06:05:37;;;;;;;8.25;6.10;;;;;;;20.45;71.60;99915.91;5005247;28;20421;-19
2023/06/09 06:08:02;;;;;;;9.23;6.43;;;;;;;20.55;69.99;99900.59;5005562;28;20022;-19
2023/06/09 06:10:28;;;;;;;31.40;20.42;;;;;;;20.82;70.19;99925.25;5005506;28;20095;-19
2023/06/09 06:12:54;;;;;;;51.72;33.63;;;;;;;20.93;68.61;99915.06;5005558;28;20034;-19
2023/06/09 06:15:19;;;;;;;23.75;13.00;;;;;;;21.02;67.19;99917.91;5005208;28;20029;-18
2023/06/09 06:17:45;;;;;;;8.35;6.13;;;;;;;21.29;65.46;99909.16;5004993;28;20061;-19
2023/06/09 06:20:12;;;;;;;7.55;5.50;;;;;;;21.32;65.14;99915.88;5005389;28;20041;-19
2023/06/09 06:22:38;;;;;;;12.20;6.32;;;;;;;21.42;64.78;99910.31;5005399;28;20026;-19
2023/06/09 06:25:04;;;;;;;7.03;4.80;;;;;;;21.32;65.06;99905.03;5005387;28;20021;-18
2023/06/09 06:27:29;;;;;;;7.13;4.70;;;;;;;21.32;61.68;99919.41;5005447;28;20056;-19
2023/06/09 06:29:55;;;;;;;7.97;4.57;;;;;;;21.22;64.47;99906.78;5005053;28;20034;-19
2023/06/09 06:32:20;;;;;;;6.95;4.50;;;;;;;21.25;61.19;99908.94;5005373;28;20033;-20
2023/06/09 06:34:46;;;;;;;7.70;5.20;;;;;;;21.45;61.86;99915.16;5005280;28;20065;-20
2023/06/09 06:37:11;;;;;;;10.48;5.63;;;;;;;21.49;61.17;99916.19;5005251;28;20040;-19
2023/06/09 06:39:37;;;;;;;8.27;4.70;;;;;;;21.72;61.72;99908.22;5005280;28;20033;-19
2023/06/09 06:42:03;;;;;;;10.60;5.60;;;;;;;21.75;62.00;99907.63;5007344;28;20133;-18
2023/06/09 06:44:28;;;;;;;8.90;5.03;;;;;;;21.90;61.57;99899.22;5008890;28;20029;-21
2023/06/09 06:46:53;;;;;;;11.20;5.20;;;;;;;21.89;61.01;99905.78;5008552;28;20126;-18
2023/06/09 06:49:19;;;;;;;10.45;5.40;;;;;;;22.08;59.65;99906.50;5008719;28;20108;-20
2023/06/09 06:51:44;;;;;;;8.00;4.82;;;;;;;22.33;56.51;99909.91;5008727;28;20037;-19
2023/06/09 06:54:10;;;;;;;9.00;4.20;;;;;;;22.21;58.04;99907.63;5008481;28;20104;-18
2023/06/09 06:56:36;;;;;;;6.15;4.10;;;;;;;22.03;58.79;99884.88;5008455;28;20034;-19
2023/06/09 06:59:02;;;;;;;7.95;4.50;;;;;;;22.49;57.96;99893.28;5008335;28;20033;-22
2023/06/09 07:01:30;;;;;;;8.48;4.95;;;;;;;22.75;57.92;99894.34;5008638;28;20366;-19
2023/06/09 07:03:56;;;;;;;6.95;4.43;;;;;;;22.74;58.89;99890.06;5008564;28;20515;-19
2023/06/09 07:06:21;;;;;;;8.65;4.82;;;;;;;22.76;58.91;99887.81;5008239;28;20747;-19
2023/06/09 07:08:47;;;;;;;9.07;5.35;;;;;;;22.40;60.48;99888.56;5008320;28;20567;-18
2023/06/09 07:11:12;;;;;;;7.40;4.32;;;;;;;22.66;60.70;99877.97;5008171;28;20026;-19
2023/06/09 07:13:38;;;;;;;6.88;3.97;;;;;;;22.49;58.14;99885.13;5008223;28;20014;-21
2023/06/09 07:16:03;;;;;;;10.77;5.25;;;;;;;22.93;57.84;99880.94;5008060;28;20037;-19
2023/06/09 07:18:29;;;;;;;7.18;3.95;;;;;;;22.80;58.45;99880.66;5008127;28;20036;-18
2023/06/09 07:20:54;;;;;;;5.85;3.67;;;;;;;22.71;58.78;99879.78;5008031;28;20025;-19
2023/06/09 07:23:20;;;;;;;6.53;3.58;;;;;;;23.06;57.77;99880.13;5008473;28;20672;-18
2023/06/09 07:25:45;;;;;;;10.38;3.85;;;;;;;23.21;57.41;99871.63;5007802;28;20030;-19
2023/06/09 07:28:11;;;;;;;7.40;3.97;;;;;;;23.37;56.68;99863.88;5008009;28;20038;-21
2023/06/09 07:30:40;;;;;;;9.30;3.75;;;;;;;23.46;58.33;99861.25;5007552;28;20044;-18
2023/06/09 07:33:06;;;;;;;6.95;3.70;;;;;;;23.20;58.65;99864.56;5007916;28;20500;-19
2023/06/09 07:35:32;;;;;;;7.80;3.50;;;;;;;23.22;59.46;99856.09;5008001;28;20030;-22
2023/06/09 07:37:58;;;;;;;6.18;3.72;;;;;;;23.50;57.23;99870.41;5008075;28;20388;-20
2023/06/09 07:40:23;;;;;;;8.43;3.88;;;;;;;23.33;57.42;99873.78;5007739;28;20465;-23
2023/06/09 07:42:48;;;;;;;8.93;4.13;;;;;;;23.47;58.07;99871.00;5007373;28;20042;-19
2023/06/09 07:45:14;;;;;;;7.00;3.78;;;;;;;23.71;59.15;99872.59;5007652;28;20030;-19
2023/06/09 07:47:40;;;;;;;6.93;3.72;;;;;;;23.81;57.15;99865.00;5007668;28;20033;-19
2023/06/09 07:50:06;;;;;;;6.07;4.32;;;;;;;23.88;55.70;99869.19;5007686;28;20541;-20
2023/06/09 07:52:32;;;;;;;6.68;4.13;;;;;;;23.85;56.03;99870.63;5007319;28;20160;-20
2023/06/09 07:54:57;;;;;;;10.98;4.00;;;;;;;24.42;54.53;99865.25;5007575;28;20030;-19
2023/06/09 07:57:23;;;;;;;7.35;3.75;;;;;;;24.47;53.98;99867.81;5007332;28;20069;-21
2023/06/09 07:59:48;;;;;;;9.45;4.13;;;;;;;24.57;52.34;99872.19;5007545;28;20030;-19
2023/06/09 08:02:13;;;;;;;7.47;4.10;;;;;;;24.43;51.62;99872.28;5007145;28;20056;-17
2023/06/09 08:04:42;;;;;;;5.90;3.88;;;;;;;24.56;51.41;99869.78;5007044;28;20029;-19
2023/06/09 08:07:09;;;;;;;7.45;4.53;;;;;;;24.66;51.06;99875.75;5006998;28;20022;-19
2023/06/09 08:09:35;;;;;;;7.00;3.80;;;;;;;24.91;50.93;99880.75;5006996;28;20121;-19
2023/06/09 08:12:01;;;;;;;9.73;4.53;;;;;;;24.82;52.57;99865.19;5007161;28;20378;-19
2023/06/09 08:14:26;;;;;;;9.32;3.75;;;;;;;24.79;52.76;99873.22;5007219;28;20022;-19
2023/06/09 08:16:52;;;;;;;10.05;4.78;;;;;;;25.15;51.70;99881.13;5006838;28;20029;-18
2023/06/09 08:19:17;;;;;;;7.35;3.90;;;;;;;25.27;49.57;99869.56;5007076;28;20022;-19
2023/06/09 08:21:43;;;;;;;8.20;3.55;;;;;;;25.23;49.84;99872.16;5006898;28;20029;-20
2023/06/09 08:24:12;;;;;;;6.80;4.18;;;;;;;25.64;49.89;99879.00;5006810;28;20637;-19
2023/06/09 08:26:41;;;;;;;8.13;3.75;;;;;;;25.65;49.00;99874.34;5006951;28;20025;-19
2023/06/09 08:29:06;;;;;;;8.05;4.00;;;;;;;25.30;51.07;99870.88;5007000;28;20030;-19
2023/06/09 08:31:32;;;;;;;7.20;4.03;;;;;;;25.31;49.70;99877.91;5006783;28;20084;-19
2023/06/09 08:33:58;;;;;;;6.55;3.60;;;;;;;25.16;51.86;99866.31;5006696;28;20520;-19
2023/06/09 08:36:24;;;;;;;6.80;3.72;;;;;;;25.67;50.38;99872.09;5006411;28;20025;-19
2023/06/09 08:38:50;;;;;;;6.60;3.60;;;;;;;25.52;48.85;99872.56;5006585;28;20033;-19
2023/06/09 08:41:16;;;;;;;5.47;3.13;;;;;;;26.11;47.54;99870.03;5006401;28;20493;-19
2023/06/09 08:43:41;;;;;;;6.15;3.10;;;;;;;26.22;47.12;99871.28;5006636;28;20056;-20
2023/06/09 08:46:10;;;;;;;5.72;2.97;;;;;;;25.94;48.88;99851.78;5006374;28;20069;-20
2023/06/09 08:48:57;;;;;;;5.07;3.40;;;;;;;26.36;48.43;99862.84;5006672;28;20501;-19
2023/06/09 08:51:23;;;;;;;6.38;3.17;;;;;;;26.56;45.91;99871.41;5006475;28;20064;-19
2023/06/09 08:53:52;;;;;;;5.15;2.90;;;;;;;26.60;45.86;99845.03;5006263;28;20416;-20
2023/06/09 08:56:21;;;;;;;4.40;2.58;;;;;;;26.38;47.79;99849.66;5006171;28;20022;-19
2023/06/09 08:58:48;;;;;;;6.82;3.30;;;;;;;26.30;48.41;99847.78;5006430;28;20018;-19
2023/06/09 09:01:15;;;;;;;5.50;2.97;;;;;;;26.03;48.85;99843.53;5006328;28;20080;-19
2023/06/09 09:03:41;;;;;;;7.50;2.97;;;;;;;26.45;49.08;99847.19;5005522;28;20034;-19
2023/06/09 09:06:06;;;;;;;5.70;3.30;;;;;;;26.06;48.34;99838.22;5006738;28;20028;-19
2023/06/09 09:08:32;;;;;;;7.28;3.17;;;;;;;26.71;46.66;99846.25;5006152;28;20026;-19
2023/06/09 09:10:57;;;;;;;6.35;2.90;;;;;;;26.88;45.11;99844.53;5006264;28;20018;-19
2023/06/09 09:13:29;;;;;;;7.93;3.70;;;;;;;26.62;47.46;99831.84;5005800;28;20041;-19
2023/06/09 09:15:54;;;;;;;6.38;3.42;;;;;;;26.84;46.79;99838.91;5006311;28;20033;-19
2023/06/09 09:18:20;;;;;;;5.85;3.17;;;;;;;26.62;48.04;99834.56;5005958;28;20026;-19
2023/06/09 09:20:45;;;;;;;8.68;3.28;;;;;;;26.74;48.09;99837.38;5005856;28;20026;-20
2023/06/09 09:23:11;;;;;;;5.45;3.33;;;;;;;27.03;43.82;99830.22;5006111;28;20021;-18
2023/06/09 09:25:37;;;;;;;6.22;3.00;;;;;;;27.13;42.55;99832.56;5005972;28;20030;-18
2023/06/09 09:28:07;;;;;;;5.80;3.20;;;;;;;27.48;41.33;99832.25;5006178;28;20065;-19
2023/06/09 09:30:43;;;;;;;4.28;2.50;;;;;;;27.57;41.21;99827.50;5005894;28;20456;-20
2023/06/09 09:33:13;;;;;;;6.47;3.03;;;;;;;27.69;41.61;99820.44;5005637;28;20469;-20
2023/06/09 09:35:42;;;;;;;5.03;2.85;;;;;;;27.34;42.47;99812.59;5005894;28;20033;-20
2023/06/09 09:38:28;;;;;;;6.38;3.00;;;;;;;27.88;39.74;99820.72;5005897;28;20088;-20
2023/06/09 09:40:56;;;;;;;5.55;2.80;;;;;;;28.36;39.40;99790.88;5006325;28;20029;-19
2023/06/09 09:43:25;;;;;;;9.70;5.03;;;;;;;28.55;38.61;99795.81;5005518;28;20046;-20
2023/06/09 09:45:52;;;;;;;7.03;3.97;;;;;;;28.43;40.15;99797.38;5005558;28;20076;-19
2023/06/09 09:48:21;;;;;;;5.25;2.72;;;;;;;28.62;41.25;99796.00;5005569;28;20057;-17
2023/06/09 09:50:48;;;;;;;6.22;2.78;;;;;;;28.55;41.17;99790.31;5005785;28;20577;-19
2023/06/09 09:53:14;;;;;;;6.53;2.83;;;;;;;28.67;40.93;99784.81;5005735;28;20518;-19
2023/06/09 09:55:46;;;;;;;6.22;2.60;;;;;;;28.60;38.63;99792.81;5005597;28;20030;-20
2023/06/09 09:58:13;;;;;;;5.50;2.55;;;;;;;28.96;38.78;99805.63;5005406;28;20030;-19
2023/06/09 10:00:42;;;;;;;4.75;2.80;;;;;;;28.80;39.31;99802.00;5005706;28;20040;-19
2023/06/09 10:03:14;;;;;;;5.18;2.90;;;;;;;29.02;38.17;99806.19;5005648;28;20034;-19
2023/06/09 10:05:46;;;;;;;4.47;2.83;;;;;;;29.14;39.92;99802.63;5005486;28;20065;-19
2023/06/09 10:08:17;;;;;;;4.28;2.65;;;;;;;29.50;38.58;99796.09;5005358;28;20452;-20
2023/06/09 10:10:43;;;;;;;5.80;3.00;;;;;;;29.08;39.36;99802.03;5005272;28;20034;-19
2023/06/09 10:13:09;;;;;;;5.72;3.20;;;;;;;29.40;39.49;99804.84;5005251;28;20666;-19
2023/06/09 10:15:34;;;;;;;5.10;3.03;;;;;;;29.09;39.96;99795.38;5005934;28;20030;-19
2023/06/09 10:18:02;;;;;;;4.65;2.60;;;;;;;29.09;37.61;99773.41;5009051;28;20026;-19
2023/06/09 10:20:28;;;;;;;;;;;;;;;29.09;37.82;99789.88;5009625;28;20033;-19
2023/06/09 10:22:54;;;;;;;5.88;3.03;;;;;;;29.29;37.40;99781.81;5009319;28;20553;-19
2023/06/09 10:25:20;;;;;;;4.38;2.47;;;;;;;29.10;36.60;99790.72;5009015;28;20068;-20
2023/06/09 10:27:49;;;;;;;8.80;3.27;;;;;;;29.20;38.52;99779.25;5009128;28;20057;-19
2023/06/09 10:30:15;;;;;;;4.00;2.58;;;;;;;29.05;38.58;99780.75;5008902;28;20273;-19
2023/06/09 10:32:46;;;;;;;4.75;2.90;;;;;;;29.17;40.18;99774.44;5008979;28;20468;-19
2023/06/09 10:35:16;;;;;;;5.35;2.97;;;;;;;28.92;38.60;99762.75;5009000;28;20033;-18
2023/06/09 10:37:42;;;;;;;4.40;2.90;;;;;;;29.08;37.20;99782.03;5008403;28;20129;-21
2023/06/09 10:40:21;;;;;;;5.47;3.10;;;;;;;29.25;36.74;99777.00;5009038;28;20441;-25
2023/06/09 10:42:55;;;;;;;6.22;3.15;;;;;;;29.52;35.87;99773.78;5008503;28;20053;-19
2023/06/09 10:45:21;;;;;;;4.07;2.60;;;;;;;29.72;35.26;99775.47;5008643;28;20029;-19
2023/06/09 10:47:48;;;;;;;8.55;2.85;;;;;;;29.16;35.45;99770.91;5008823;28;20030;-19
2023/06/09 10:50:30;;;;;;;7.13;2.85;;;;;;;29.82;34.95;99763.97;5008340;28;20021;-19
2023/06/09 10:52:59;;;;;;;4.28;2.50;;;;;;;30.22;34.06;99770.38;5008576;28;20596;-19
2023/06/09 10:55:30;;;;;;;5.78;2.55;;;;;;;30.42;32.95;99765.72;5008733;28;20018;-19
2023/06/09 10:57:57;;;;;;;7.07;2.80;;;;;;;30.61;32.63;99757.50;5008370;28;20044;-19
2023/06/09 11:00:24;;;;;;;5.20;2.70;;;;;;;31.03;32.29;99770.53;5008743;28;20034;-19
2023/06/09 11:02:52;;;;;;;5.50;2.72;;;;;;;30.75;33.15;99757.00;5008102;28;20045;-19
2023/06/09 11:05:19;;;;;;;4.13;2.67;;;;;;;30.73;32.30;99770.31;5008480;28;20018;-19
2023/06/09 11:08:02;;;;;;;4.22;2.40;;;;;;;30.49;32.87;99754.09;5008341;28;20029;-19
2023/06/09 11:10:28;;;;;;;5.93;2.80;;;;;;;30.52;33.16;99742.34;5008319;28;20026;-21
2023/06/09 11:12:55;;;;;;;5.22;2.40;;;;;;;30.56;32.90;99759.72;5008198;28;20033;-20
2023/06/09 11:15:21;;;;;;;4.68;2.70;;;;;;;30.67;32.25;99737.94;5008221;28;20029;-19
2023/06/09 11:17:53;;;;;;;5.55;2.65;;;;;;;30.62;33.20;99742.56;5008068;28;20065;-20
2023/06/09 11:20:22;;;;;;;4.43;2.20;;;;;;;30.43;33.72;99735.09;5007648;28;20034;-20
2023/06/09 11:22:48;;;;;;;5.90;2.88;;;;;;;30.94;31.48;99742.44;5007398;28;20072;-19
2023/06/09 11:25:23;;;;;;;6.15;2.63;;;;;;;31.03;31.21;99740.22;5008001;28;20698;-19
2023/06/09 11:28:08;;;;;;;5.00;2.40;;;;;;;30.82;30.21;99732.34;5007255;28;20591;-19
2023/06/09 11:30:34;;;;;;;4.43;2.50;;;;;;;31.09;30.94;99715.94;5007570;28;20029;-20
2023/06/09 11:33:05;;;;;;;5.32;2.63;;;;;;;30.64;31.39;99736.69;5007752;28;20421;-19